createdAt,value
2018-10-15T00:00:20.228Z,14.19
2018-10-15T00:01:24.809Z,14.08
2018-10-15T00:02:30.999Z,14.04
2018-10-15T00:03:36.406Z,14.00
2018-10-15T00:04:44.022Z,13.96
2018-10-15T00:05:51.534Z,13.73
2018-10-15T00:06:57.514Z,13.51
2018-10-15T00:08:02.099Z,13.44
2018-10-15T00:09:08.366Z,13.44
2018-10-15T00:10:12.896Z,13.38
2018-10-15T00:11:17.588Z,13.35
2018-10-15T00:12:22.946Z,13.37
2018-10-15T00:13:28.441Z,13.44
2018-10-15T00:14:33.615Z,13.47
2018-10-15T00:15:38.309Z,13.54
2018-10-15T00:16:43.501Z,13.60
2018-10-15T00:17:48.180Z,13.60
2018-10-15T00:18:52.829Z,13.58
2018-10-15T00:19:57.905Z,13.58
2018-10-15T00:21:02.438Z,13.61
2018-10-15T00:22:07.289Z,13.62
2018-10-15T00:23:11.896Z,13.65
2018-10-15T00:24:16.321Z,13.70
2018-10-15T00:25:24.223Z,13.68
2018-10-15T00:26:30.872Z,13.61
2018-10-15T00:27:35.567Z,13.52
2018-10-15T00:28:41.417Z,13.44
2018-10-15T00:29:46.401Z,13.39
2018-10-15T00:30:51.470Z,13.33
2018-10-15T00:31:57.062Z,13.34
2018-10-15T00:33:03.437Z,13.35
2018-10-15T00:34:08.841Z,13.35
2018-10-15T00:35:14.550Z,13.36
2018-10-15T00:36:19.305Z,13.32
2018-10-15T00:37:23.864Z,13.24
2018-10-15T00:38:30.489Z,13.10
2018-10-15T00:39:35.747Z,13.03
2018-10-15T00:40:43.606Z,13.02
2018-10-15T00:41:48.393Z,13.10
2018-10-15T00:42:53.283Z,13.09
2018-10-15T00:43:58.470Z,13.02
2018-10-15T00:45:03.511Z,12.94
2018-10-15T00:46:09.011Z,12.86
2018-10-15T00:47:14.573Z,12.79
2018-10-15T00:48:19.088Z,12.73
2018-10-15T00:49:25.664Z,12.73
2018-10-15T00:50:30.086Z,12.79
2018-10-15T00:51:36.077Z,12.82
2018-10-15T00:52:41.103Z,12.86
2018-10-15T00:53:45.568Z,12.88
2018-10-15T00:54:50.079Z,12.90
2018-10-15T00:55:54.504Z,12.86
2018-10-15T00:56:58.897Z,12.86
2018-10-15T00:58:03.855Z,12.87
2018-10-15T00:59:09.564Z,12.92
2018-10-15T01:00:16.412Z,12.94
2018-10-15T01:01:20.804Z,13.00
2018-10-15T01:02:25.287Z,13.00
2018-10-15T01:03:29.759Z,12.99
2018-10-15T01:04:34.328Z,12.93
2018-10-15T01:05:39.049Z,12.94
2018-10-15T01:06:43.487Z,12.85
2018-10-15T01:07:48.876Z,12.83
2018-10-15T01:08:54.350Z,12.80
2018-10-15T01:09:58.839Z,12.78
2018-10-15T01:11:03.626Z,12.83
2018-10-15T01:12:08.327Z,12.87
2018-10-15T01:13:12.741Z,12.90
2018-10-15T01:14:17.436Z,12.87
2018-10-15T01:15:21.842Z,12.81
2018-10-15T01:16:29.561Z,12.84
2018-10-15T01:17:34.569Z,12.85
2018-10-15T01:18:42.655Z,12.67
2018-10-15T01:19:47.054Z,12.61
2018-10-15T01:20:51.448Z,12.65
2018-10-15T01:21:56.660Z,12.64
2018-10-15T01:23:02.003Z,12.55
2018-10-15T01:24:06.482Z,12.55
2018-10-15T01:25:12.005Z,12.60
2018-10-15T01:26:17.496Z,12.68
2018-10-15T01:27:21.977Z,12.54
2018-10-15T01:28:27.002Z,12.45
2018-10-15T01:29:31.378Z,12.47
2018-10-15T01:30:35.775Z,12.36
2018-10-15T01:31:41.378Z,12.18
2018-10-15T01:32:45.886Z,12.18
2018-10-15T01:33:50.740Z,12.28
2018-10-15T01:34:56.052Z,12.22
2018-10-15T01:36:03.546Z,12.14
2018-10-15T01:37:23.719Z,12.13
2018-10-15T01:38:30.958Z,11.96
2018-10-15T01:39:37.960Z,11.90
2018-10-15T01:40:44.557Z,11.78
2018-10-15T01:41:50.744Z,11.60
2018-10-15T01:42:57.600Z,11.60
2018-10-15T02:00:03.809Z,11.89
2018-10-15T02:01:10.468Z,11.77
2018-10-15T02:02:16.461Z,11.71
2018-10-15T02:03:23.521Z,11.76
2018-10-15T02:04:28.353Z,11.86
2018-10-15T02:05:32.796Z,11.93
2018-10-15T02:06:38.683Z,11.89
2018-10-15T02:07:44.364Z,11.92
2018-10-15T02:08:49.548Z,11.91
2018-10-15T02:09:55.105Z,11.88
2018-10-15T02:10:59.747Z,11.90
2018-10-15T02:12:04.179Z,11.92
2018-10-15T02:13:09.079Z,11.91
2018-10-15T02:14:13.902Z,11.94
2018-10-15T02:15:26.366Z,11.98
2018-10-15T02:16:30.961Z,11.95
2018-10-15T02:17:35.381Z,11.93
2018-10-15T02:18:40.690Z,11.83
2018-10-15T02:19:46.940Z,11.71
2018-10-15T02:20:51.728Z,11.72
2018-10-15T02:21:58.023Z,11.64
2018-10-15T02:23:02.592Z,11.68
2018-10-15T02:24:07.563Z,11.65
2018-10-15T02:25:12.096Z,11.59
2018-10-15T02:26:18.013Z,11.61
2018-10-15T02:27:23.296Z,11.62
2018-10-15T02:28:28.685Z,11.61
2018-10-15T02:29:36.494Z,11.67
2018-10-15T02:30:41.602Z,11.71
2018-10-15T02:31:46.288Z,11.74
2018-10-15T02:32:52.542Z,11.80
2018-10-15T02:33:57.090Z,11.82
2018-10-15T02:35:01.828Z,11.79
2018-10-15T02:36:07.041Z,11.68
2018-10-15T02:37:11.597Z,11.64
2018-10-15T02:38:16.565Z,11.69
2018-10-15T02:39:21.494Z,11.67
2018-10-15T02:40:26.016Z,11.68
2018-10-15T02:41:30.558Z,11.73
2018-10-15T02:42:35.190Z,11.78
2018-10-15T02:43:39.691Z,11.78
2018-10-15T02:44:44.215Z,11.77
2018-10-15T02:45:49.062Z,11.76
2018-10-15T02:46:53.578Z,11.79
2018-10-15T02:47:58.068Z,11.83
2018-10-15T02:49:02.629Z,11.87
2018-10-15T02:50:07.644Z,11.84
2018-10-15T02:51:12.215Z,11.86
2018-10-15T02:52:17.003Z,11.84
2018-10-15T02:53:21.464Z,11.87
2018-10-15T02:54:25.938Z,11.93
2018-10-15T02:55:30.477Z,11.94
2018-10-15T02:56:35.158Z,11.84
2018-10-15T02:57:39.647Z,11.79
2018-10-15T02:58:45.247Z,11.70
2018-10-15T02:59:50.626Z,11.68
2018-10-15T03:00:55.066Z,11.68
2018-10-15T03:01:59.694Z,11.60
2018-10-15T03:03:04.331Z,11.47
2018-10-15T03:04:23.685Z,11.43
2018-10-15T03:05:28.261Z,11.45
2018-10-15T03:06:33.194Z,11.47
2018-10-15T03:07:37.602Z,11.49
2018-10-15T03:08:41.997Z,11.51
2018-10-15T03:09:46.416Z,11.56
2018-10-15T03:10:51.134Z,11.60
2018-10-15T03:11:55.529Z,11.61
2018-10-15T03:12:59.964Z,11.68
2018-10-15T03:14:04.345Z,11.68
2018-10-15T03:15:09.792Z,11.70
2018-10-15T03:16:14.434Z,11.65
2018-10-15T03:17:20.716Z,11.62
2018-10-15T03:18:26.117Z,11.56
2018-10-15T03:19:31.094Z,11.52
2018-10-15T03:20:35.672Z,11.46
2018-10-15T03:21:40.590Z,11.45
2018-10-15T03:22:45.135Z,11.45
2018-10-15T03:23:50.086Z,11.39
2018-10-15T03:24:54.458Z,11.39
2018-10-15T03:25:58.893Z,11.31
2018-10-15T03:27:03.301Z,11.23
2018-10-15T03:28:07.737Z,11.15
2018-10-15T03:29:12.912Z,11.11
2018-10-15T03:30:17.766Z,11.05
2018-10-15T03:31:22.482Z,11.02
2018-10-15T03:32:27.721Z,11.03
2018-10-15T03:33:32.090Z,11.09
2018-10-15T03:34:36.492Z,11.13
2018-10-15T03:35:41.245Z,11.21
2018-10-15T03:36:45.779Z,11.29
2018-10-15T03:37:50.263Z,11.36
2018-10-15T03:38:54.692Z,11.38
2018-10-15T03:39:59.203Z,11.37
2018-10-15T03:41:04.257Z,11.25
2018-10-15T03:42:09.438Z,11.14
2018-10-15T03:43:14.110Z,11.08
2018-10-15T03:44:18.644Z,11.10
2018-10-15T03:45:23.279Z,11.12
2018-10-15T03:46:27.865Z,11.14
2018-10-15T03:47:32.293Z,11.03
2018-10-15T03:48:37.062Z,11.02
2018-10-15T03:49:41.444Z,11.08
2018-10-15T03:50:45.868Z,11.08
2018-10-15T03:51:51.663Z,11.05
2018-10-15T03:52:56.116Z,11.12
2018-10-15T03:54:00.531Z,11.20
2018-10-15T03:55:05.538Z,11.26
2018-10-15T03:56:09.955Z,11.22
2018-10-15T03:57:14.366Z,11.25
2018-10-15T03:58:18.807Z,11.30
2018-10-15T03:59:23.608Z,11.30
2018-10-15T04:00:27.994Z,11.32
2018-10-15T04:01:32.657Z,11.32
2018-10-15T04:02:37.198Z,11.21
2018-10-15T04:03:42.023Z,11.17
2018-10-15T04:04:46.472Z,11.18
2018-10-15T04:05:50.875Z,11.15
2018-10-15T04:06:55.272Z,11.11
2018-10-15T04:07:59.937Z,11.11
2018-10-15T04:09:05.228Z,11.14
2018-10-15T04:10:09.603Z,11.15
2018-10-15T04:11:14.037Z,11.21
2018-10-15T04:12:18.412Z,11.23
2018-10-15T04:13:22.937Z,11.23
2018-10-15T04:14:27.716Z,11.18
2018-10-15T04:15:32.157Z,11.17
2018-10-15T04:16:36.544Z,11.15
2018-10-15T04:17:40.977Z,11.01
2018-10-15T04:18:45.477Z,10.94
2018-10-15T04:19:49.851Z,10.96
2018-10-15T04:20:54.273Z,11.02
2018-10-15T04:21:58.741Z,10.93
2018-10-15T04:23:03.278Z,10.92
2018-10-15T04:24:07.809Z,10.88
2018-10-15T04:25:12.237Z,10.86
2018-10-15T04:26:16.686Z,10.90
2018-10-15T04:27:21.396Z,10.87
2018-10-15T04:28:25.857Z,10.93
2018-10-15T04:29:30.293Z,10.96
2018-10-15T04:30:34.765Z,10.86
2018-10-15T04:31:39.223Z,10.81
2018-10-15T04:32:43.607Z,10.81
2018-10-15T04:33:48.308Z,10.80
2018-10-15T04:34:52.701Z,10.87
2018-10-15T04:35:57.110Z,10.90
2018-10-15T04:37:01.502Z,10.96
2018-10-15T04:38:05.992Z,10.93
2018-10-15T04:39:10.849Z,11.02
2018-10-15T04:40:15.841Z,11.08
2018-10-15T04:41:20.516Z,11.06
2018-10-15T04:42:25.077Z,11.08
2018-10-15T04:43:29.481Z,11.10
2018-10-15T04:44:34.194Z,11.08
2018-10-15T04:45:38.701Z,11.13
2018-10-15T04:46:44.488Z,11.16
2018-10-15T04:47:48.937Z,11.19
2018-10-15T04:48:53.397Z,11.24
2018-10-15T04:50:00.949Z,11.31
2018-10-15T04:51:05.441Z,11.27
2018-10-15T04:52:09.889Z,11.21
2018-10-15T04:53:14.595Z,11.24
2018-10-15T04:54:19.027Z,11.26
2018-10-15T04:55:23.519Z,11.21
2018-10-15T04:56:29.178Z,11.09
2018-10-15T04:57:33.590Z,11.03
2018-10-15T04:58:38.072Z,11.02
2018-10-15T04:59:42.941Z,11.07
2018-10-15T05:00:47.492Z,11.12
2018-10-15T05:01:51.959Z,11.04
2018-10-15T05:02:56.464Z,11.08
2018-10-15T05:04:01.226Z,11.08
2018-10-15T05:05:06.137Z,11.10
2018-10-15T05:06:11.130Z,11.02
2018-10-15T05:07:15.588Z,10.96
2018-10-15T05:08:20.008Z,11.03
2018-10-15T05:09:24.902Z,11.17
2018-10-15T05:10:29.648Z,11.25
2018-10-15T05:11:35.150Z,11.20
2018-10-15T05:12:40.896Z,11.21
2018-10-15T05:13:45.725Z,11.15
2018-10-15T05:14:50.293Z,11.08
2018-10-15T05:15:56.566Z,11.09
2018-10-15T05:17:03.116Z,11.13
2018-10-15T05:18:09.398Z,11.19
2018-10-15T05:19:14.409Z,11.12
2018-10-15T05:20:20.215Z,11.12
2018-10-15T05:21:24.938Z,11.08
2018-10-15T05:22:29.267Z,11.12
2018-10-15T05:23:33.910Z,11.12
2018-10-15T05:24:38.373Z,11.07
2018-10-15T05:25:43.337Z,10.95
2018-10-15T05:26:49.389Z,10.85
2018-10-15T05:27:55.169Z,10.79
2018-10-15T05:28:59.642Z,10.81
2018-10-15T05:30:04.725Z,10.83
2018-10-15T05:31:09.112Z,10.93
2018-10-15T05:32:13.819Z,10.95
2018-10-15T05:46:43.669Z,10.87
2018-10-15T05:47:48.455Z,10.88
2018-10-15T05:48:53.406Z,10.89
2018-10-15T05:49:58.745Z,10.85
2018-10-15T05:51:04.348Z,10.82
2018-10-15T05:52:09.832Z,10.79
2018-10-15T05:53:14.791Z,10.81
2018-10-15T05:54:19.293Z,10.83
2018-10-15T05:55:25.409Z,10.69
2018-10-15T05:56:30.066Z,10.68
2018-10-15T05:57:34.796Z,10.72
2018-10-15T05:58:40.427Z,10.69
2018-10-15T05:59:45.699Z,10.70
2018-10-15T06:00:50.924Z,10.65
2018-10-15T06:01:55.437Z,10.66
2018-10-15T06:02:59.965Z,10.68
2018-10-15T06:04:05.552Z,10.77
2018-10-15T06:05:11.238Z,10.86
2018-10-15T06:06:15.743Z,10.91
2018-10-15T06:07:21.958Z,10.96
2018-10-15T06:08:27.722Z,10.98
2018-10-15T06:09:32.178Z,11.01
2018-10-15T06:10:36.646Z,11.00
2018-10-15T06:11:41.585Z,11.02
2018-10-15T06:12:47.823Z,10.99
2018-10-15T06:13:52.318Z,11.01
2018-10-15T06:14:56.850Z,11.08
2018-10-15T06:16:02.279Z,11.14
2018-10-15T06:17:07.488Z,11.13
2018-10-15T06:18:12.367Z,11.12
2018-10-15T06:19:17.621Z,11.11
2018-10-15T06:20:22.484Z,11.16
2018-10-15T06:21:28.363Z,11.22
2018-10-15T06:22:33.060Z,11.19
2018-10-15T06:23:38.438Z,11.17
2018-10-15T06:24:44.181Z,11.19
2018-10-15T06:25:49.928Z,11.22
2018-10-15T06:26:55.259Z,11.31
2018-10-15T06:27:59.731Z,11.39
2018-10-15T06:29:04.581Z,11.39
2018-10-15T06:30:10.156Z,11.40
2018-10-15T06:31:15.545Z,11.38
2018-10-15T06:32:19.999Z,11.39
2018-10-15T06:33:26.535Z,11.43
2018-10-15T06:34:31.532Z,11.47
2018-10-15T06:35:36.031Z,11.41
2018-10-15T06:36:40.520Z,11.34
2018-10-15T06:37:46.282Z,11.33
2018-10-15T06:38:50.797Z,11.47
2018-10-15T06:39:55.737Z,11.62
2018-10-15T06:41:00.598Z,11.99
2018-10-15T06:42:05.323Z,12.50
2018-10-15T06:43:11.350Z,12.71
2018-10-15T06:44:18.902Z,12.68
2018-10-15T06:45:23.484Z,12.81
2018-10-15T06:46:28.084Z,13.13
2018-10-15T06:47:33.958Z,13.31
2018-10-15T06:48:39.213Z,13.41
2018-10-15T06:49:43.756Z,13.29
2018-10-15T06:50:49.500Z,13.41
2018-10-15T06:51:54.047Z,13.86
2018-10-15T06:52:58.574Z,14.25
2018-10-15T06:54:03.265Z,14.18
2018-10-15T06:55:08.032Z,13.64
2018-10-15T06:56:12.540Z,13.14
2018-10-15T06:57:19.052Z,12.78
2018-10-15T06:58:23.620Z,12.69
2018-10-15T06:59:28.261Z,12.58
2018-10-15T07:00:33.424Z,12.52
2018-10-15T07:01:38.020Z,12.47
2018-10-15T07:02:43.269Z,12.40
2018-10-15T07:03:48.135Z,12.31
2018-10-15T07:04:52.751Z,12.24
2018-10-15T07:05:57.473Z,12.15
2018-10-15T07:07:02.193Z,12.10
2018-10-15T07:08:07.781Z,12.09
2018-10-15T07:09:13.432Z,12.11
2018-10-15T07:10:19.025Z,12.13
2018-10-15T07:11:23.631Z,12.18
2018-10-15T07:12:28.083Z,12.20
2018-10-15T07:13:32.718Z,12.30
2018-10-15T07:14:37.583Z,12.55
2018-10-15T07:15:43.057Z,12.86
2018-10-15T07:16:47.950Z,13.31
2018-10-15T07:17:52.958Z,13.79
2018-10-15T07:18:58.454Z,13.83
2018-10-15T07:20:03.641Z,13.78
2018-10-15T07:21:08.298Z,13.78
2018-10-15T07:22:14.485Z,14.06
2018-10-15T07:23:22.311Z,14.27
2018-10-15T07:24:27.200Z,15.04
2018-10-15T07:25:37.637Z,15.85
2018-10-15T07:26:47.132Z,16.64
2018-10-15T07:27:54.644Z,17.33
2018-10-15T07:29:01.561Z,18.00
2018-10-15T07:30:10.604Z,18.34
2018-10-15T07:31:15.424Z,18.39
2018-10-15T07:32:24.580Z,18.63
2018-10-15T07:33:36.905Z,18.92
2018-10-15T07:34:42.421Z,18.97
2018-10-15T07:35:47.885Z,19.07
2018-10-15T07:36:54.837Z,19.13
2018-10-15T07:37:59.394Z,18.93
2018-10-15T07:39:10.296Z,18.55
2018-10-15T07:40:15.221Z,18.05
2018-10-15T07:41:22.510Z,17.84
2018-10-15T07:42:31.585Z,17.92
2018-10-15T07:43:36.147Z,17.69
2018-10-15T07:44:40.806Z,17.91
2018-10-15T07:45:47.006Z,18.35
2018-10-15T07:46:52.873Z,18.54
2018-10-15T07:47:59.136Z,18.43
2018-10-15T07:49:05.989Z,17.99
2018-10-15T07:50:18.865Z,17.69
2018-10-15T07:51:31.480Z,17.54
2018-10-15T07:52:39.425Z,17.44
2018-10-15T07:53:46.735Z,17.95
2018-10-15T07:54:54.424Z,18.42
2018-10-15T07:56:01.137Z,19.19
2018-10-15T07:57:07.237Z,19.89
2018-10-15T07:58:13.454Z,20.53
2018-10-15T07:59:19.663Z,20.94
2018-10-15T08:00:27.572Z,21.86
2018-10-15T08:01:33.936Z,22.80
2018-10-15T08:02:38.510Z,23.80
2018-10-15T08:03:46.944Z,24.32
2018-10-15T08:04:53.745Z,23.75
2018-10-15T08:05:59.335Z,22.60
2018-10-15T08:07:04.946Z,21.97
2018-10-15T08:08:10.358Z,21.92
2018-10-15T08:09:17.374Z,22.35
2018-10-15T08:10:36.544Z,22.43
2018-10-15T08:11:57.107Z,22.45
2018-10-15T08:13:05.828Z,23.11
2018-10-15T08:14:12.439Z,23.74
2018-10-15T08:15:18.099Z,24.35
2018-10-15T08:16:22.871Z,25.12
2018-10-15T08:17:28.153Z,26.01
2018-10-15T08:18:33.476Z,26.75
2018-10-15T08:19:40.405Z,26.46
2018-10-15T08:20:46.289Z,26.32
2018-10-15T08:21:51.690Z,26.18
2018-10-15T08:22:56.279Z,25.70
2018-10-15T08:24:01.636Z,25.75
2018-10-15T08:25:06.520Z,25.60
2018-10-15T08:26:12.515Z,26.30
2018-10-15T08:27:18.261Z,26.81
2018-10-15T08:28:23.117Z,27.09
2018-10-15T08:29:28.287Z,27.96
2018-10-15T08:30:34.640Z,29.01
2018-10-15T08:31:39.320Z,29.24
2018-10-15T08:32:45.309Z,29.07
2018-10-15T08:33:51.322Z,28.51
2018-10-15T08:34:56.411Z,28.32
2018-10-15T08:36:03.529Z,28.31
2018-10-15T08:37:08.914Z,28.49
2018-10-15T08:38:29.656Z,28.73
2018-10-15T08:39:35.041Z,28.83
2018-10-15T08:40:39.782Z,29.51
2018-10-15T08:42:07.762Z,30.05
2018-10-15T08:43:15.731Z,30.00
2018-10-15T08:44:20.615Z,29.78
2018-10-15T08:45:26.179Z,29.23
2018-10-15T08:46:31.459Z,28.36
2018-10-15T08:47:36.040Z,27.70
2018-10-15T08:48:41.033Z,27.89
2018-10-15T08:49:45.617Z,27.79
2018-10-15T08:50:52.352Z,28.43
2018-10-15T08:51:59.178Z,28.44
2018-10-15T08:53:05.730Z,29.15
2018-10-15T08:54:12.445Z,29.71
2018-10-15T08:55:19.307Z,30.26
2018-10-15T08:56:25.367Z,30.62
2018-10-15T08:57:32.737Z,30.90
2018-10-15T08:58:40.241Z,30.60
2018-10-15T08:59:45.218Z,30.25
2018-10-15T09:00:50.368Z,30.02
2018-10-15T09:01:57.438Z,30.43
2018-10-15T09:03:02.094Z,30.69
2018-10-15T09:04:08.239Z,31.19
2018-10-15T09:05:14.913Z,31.03
2018-10-15T09:06:21.387Z,30.20
2018-10-15T09:07:27.302Z,30.23
2018-10-15T09:08:33.441Z,29.42
2018-10-15T09:09:42.105Z,28.62
2018-10-15T09:10:48.242Z,28.44
2018-10-15T09:11:54.624Z,28.98
2018-10-15T09:13:04.072Z,29.58
2018-10-15T09:14:11.653Z,30.09
2018-10-15T09:15:20.735Z,30.49
2018-10-15T09:16:31.965Z,30.95
2018-10-15T09:17:37.221Z,30.89
2018-10-15T09:18:42.421Z,30.19
2018-10-15T09:19:48.226Z,30.16
2018-10-15T09:20:53.808Z,29.99
2018-10-15T09:22:03.338Z,29.83
2018-10-15T09:23:08.609Z,29.73
2018-10-15T09:24:14.242Z,30.52
2018-10-15T09:25:20.570Z,31.61
2018-10-15T09:26:28.117Z,32.52
2018-10-15T09:27:33.978Z,33.11
2018-10-15T09:28:43.644Z,33.98
2018-10-15T09:29:49.570Z,34.32
2018-10-15T09:30:56.681Z,34.43
2018-10-15T09:32:01.915Z,34.07
2018-10-15T09:33:06.895Z,33.25
2018-10-15T09:34:12.663Z,33.20
2018-10-15T09:35:18.911Z,33.43
2018-10-15T09:36:23.545Z,32.39
2018-10-15T09:37:30.036Z,32.42
2018-10-15T09:38:35.305Z,32.56
2018-10-15T09:39:41.318Z,32.83
2018-10-15T09:40:45.912Z,32.05
2018-10-15T09:41:50.685Z,32.73
2018-10-15T09:42:58.598Z,32.96
2018-10-15T09:44:03.244Z,33.14
2018-10-15T09:45:08.528Z,33.18
2018-10-15T09:46:13.363Z,33.89
2018-10-15T09:47:23.516Z,33.57
2018-10-15T09:48:29.112Z,33.98
2018-10-15T09:49:34.324Z,34.07
2018-10-15T09:50:44.899Z,34.52
2018-10-15T09:51:50.883Z,35.22
2018-10-15T09:52:58.461Z,35.13
2018-10-15T09:54:05.806Z,35.19
2018-10-15T09:55:15.568Z,34.85
2018-10-15T09:56:21.485Z,35.19
2018-10-15T09:57:29.706Z,36.10
2018-10-15T09:58:36.399Z,36.98
2018-10-15T09:59:42.787Z,37.87
2018-10-15T10:00:53.401Z,37.89
2018-10-15T10:02:04.670Z,37.15
2018-10-15T10:03:10.585Z,36.78
2018-10-15T10:04:18.678Z,36.53
2018-10-15T10:05:23.882Z,36.88
2018-10-15T10:06:28.542Z,37.52
2018-10-15T10:07:34.450Z,37.66
2018-10-15T10:09:55.656Z,35.57
2018-10-15T10:11:00.742Z,35.19
2018-10-15T10:12:07.894Z,36.46
2018-10-15T10:13:14.625Z,35.64
2018-10-15T10:14:24.517Z,34.58
2018-10-15T10:15:32.133Z,35.18
2018-10-15T10:16:37.725Z,36.09
2018-10-15T10:17:43.448Z,36.44
2018-10-15T10:18:50.137Z,35.77
2018-10-15T10:19:54.960Z,34.25
2018-10-15T10:21:00.264Z,32.61
2018-10-15T10:22:05.975Z,32.05
2018-10-15T10:23:12.717Z,31.22
2018-10-15T10:24:17.395Z,30.46
2018-10-15T10:28:21.038Z,27.93
2018-10-15T10:29:34.831Z,27.57
2018-10-15T10:32:14.489Z,25.90
2018-10-15T10:46:02.004Z,28.34
2018-10-15T10:47:10.606Z,28.45
2018-10-15T10:48:17.853Z,28.51
2018-10-15T10:49:23.354Z,28.81
2018-10-15T10:51:42.973Z,29.75
2018-10-15T10:52:48.796Z,30.84
2018-10-15T10:54:00.350Z,31.76
2018-10-15T10:55:09.998Z,32.27
2018-10-15T10:56:21.386Z,33.89
2018-10-15T10:57:33.152Z,34.11
2018-10-15T10:58:47.365Z,34.13
2018-10-15T10:59:58.411Z,32.90
2018-10-15T11:01:06.131Z,31.56
2018-10-15T11:02:11.782Z,30.34
2018-10-15T11:03:16.462Z,30.41
2018-10-15T11:04:22.595Z,29.40
2018-10-15T11:05:27.571Z,29.87
2018-10-15T11:06:33.074Z,30.02
2018-10-15T11:07:39.798Z,29.98
2018-10-15T11:08:47.972Z,29.65
2018-10-15T11:09:52.755Z,29.26
2018-10-15T11:11:03.440Z,28.37
2018-10-15T11:12:19.765Z,28.59
2018-10-15T11:13:32.585Z,28.93
2018-10-15T11:14:46.207Z,27.97
2018-10-15T11:15:55.587Z,28.75
2018-10-15T11:17:07.268Z,30.35
2018-10-15T11:18:14.724Z,31.45
2018-10-15T11:24:21.666Z,31.79
2018-10-15T11:25:26.954Z,32.07
2018-10-15T11:26:32.102Z,31.78
2018-10-15T11:27:38.499Z,32.04
2018-10-15T11:28:43.342Z,32.55
2018-10-15T11:29:49.750Z,32.42
2018-10-15T11:30:59.402Z,32.26
2018-10-15T11:32:05.243Z,32.81
2018-10-15T11:33:11.186Z,33.41
2018-10-15T11:34:17.966Z,33.72
2018-10-15T11:35:24.069Z,33.47
2018-10-15T11:36:30.166Z,32.98
2018-10-15T11:37:38.662Z,33.13
2018-10-15T11:38:44.208Z,32.45
2018-10-15T11:39:56.618Z,32.53
2018-10-15T11:41:03.942Z,32.31
2018-10-15T11:42:08.727Z,32.84
2018-10-15T11:43:15.061Z,31.78
2018-10-15T11:44:21.702Z,31.39
2018-10-15T11:45:28.759Z,29.42
2018-10-15T11:46:38.715Z,28.83
2018-10-15T11:47:46.522Z,28.46
2018-10-15T11:48:52.185Z,28.40
2018-10-15T11:49:59.408Z,28.73
2018-10-15T11:51:05.177Z,29.40
2018-10-15T11:52:11.609Z,29.30
2018-10-15T11:53:20.050Z,28.63
2018-10-15T11:54:30.003Z,28.17
2018-10-15T11:55:39.126Z,28.35
2018-10-15T11:56:46.304Z,28.56
2018-10-15T11:58:00.335Z,27.67
2018-10-15T11:59:09.830Z,27.26
2018-10-15T12:00:18.650Z,27.59
2018-10-15T12:01:23.696Z,27.88
2018-10-15T12:02:30.649Z,27.60
2018-10-15T12:03:36.694Z,27.77
2018-10-15T12:04:46.500Z,28.35
2018-10-15T12:05:51.959Z,29.09
2018-10-15T12:06:57.151Z,29.70
2018-10-15T12:08:01.708Z,29.96
2018-10-15T12:09:08.097Z,30.20
2018-10-15T12:10:13.408Z,29.80
2018-10-15T12:11:20.455Z,29.49
2018-10-15T12:12:24.990Z,29.52
2018-10-15T12:13:29.484Z,29.61
2018-10-15T12:14:35.387Z,29.26
2018-10-15T12:15:41.739Z,28.89
2018-10-15T12:16:47.148Z,28.77
2018-10-15T12:17:51.976Z,28.34
2018-10-15T12:18:56.436Z,28.95
2018-10-15T12:20:07.360Z,29.07
2018-10-15T12:21:12.083Z,29.28
2018-10-15T12:22:17.194Z,29.49
2018-10-15T12:23:21.896Z,29.62
2018-10-15T12:24:26.825Z,29.43
2018-10-15T12:25:31.992Z,28.88
2018-10-15T12:26:36.928Z,29.04
2018-10-15T12:27:45.431Z,29.55
2018-10-15T12:28:52.209Z,29.87
2018-10-15T12:29:59.739Z,30.34
2018-10-15T12:31:06.937Z,29.75
2018-10-15T12:32:13.353Z,29.15
2018-10-15T12:33:17.985Z,29.44
2018-10-15T12:34:22.881Z,29.33
2018-10-15T12:35:28.551Z,29.37
2018-10-15T12:36:34.450Z,29.40
2018-10-15T12:37:40.279Z,29.15
2018-10-15T12:38:46.667Z,28.76
2018-10-15T12:39:53.814Z,29.23
2018-10-15T12:40:58.596Z,28.90
2018-10-15T12:42:03.109Z,28.42
2018-10-15T12:43:10.341Z,28.32
2018-10-15T12:44:15.443Z,28.93
2018-10-15T12:45:26.131Z,29.62
2018-10-15T12:46:35.977Z,30.83
2018-10-15T12:47:56.729Z,31.72
2018-10-15T12:49:05.071Z,32.12
2018-10-15T12:50:13.190Z,31.50
2018-10-15T12:51:18.369Z,31.27
2018-10-15T12:52:22.970Z,31.24
2018-10-15T12:53:28.029Z,30.95
2018-10-15T12:54:34.506Z,30.81
2018-10-15T12:55:40.022Z,30.65
2018-10-15T12:56:46.561Z,31.03
2018-10-15T12:57:51.105Z,31.27
2018-10-15T12:58:57.419Z,31.30
2018-10-15T13:00:09.365Z,31.08
2018-10-15T13:01:15.473Z,31.14
2018-10-15T13:02:22.276Z,31.43
2018-10-15T13:03:28.358Z,31.11
2018-10-15T13:04:33.595Z,31.05
2018-10-15T13:05:43.442Z,31.17
2018-10-15T13:06:48.507Z,31.42
2018-10-15T13:07:55.505Z,30.94
2018-10-15T13:09:13.846Z,30.31
2018-10-15T13:12:01.286Z,30.16
2018-10-15T13:13:16.676Z,29.83
2018-10-15T13:14:44.371Z,29.82
2018-10-15T13:15:52.293Z,30.17
2018-10-15T13:16:59.296Z,30.41
2018-10-15T13:18:04.379Z,30.16
2018-10-15T13:19:10.947Z,30.15
2018-10-15T13:20:15.484Z,30.76
2018-10-15T13:21:29.806Z,31.18
2018-10-15T13:22:35.827Z,31.38
2018-10-15T13:23:40.517Z,31.56
2018-10-15T13:24:48.727Z,31.27
2018-10-15T13:25:54.417Z,31.12
2018-10-15T13:26:58.935Z,31.07
2018-10-15T13:28:05.341Z,30.63
2018-10-15T13:29:13.629Z,30.83
2018-10-15T13:30:18.951Z,30.83
2018-10-15T13:31:30.125Z,30.44
2018-10-15T13:32:36.263Z,30.12
2018-10-15T13:33:43.744Z,29.67
2018-10-15T13:34:50.365Z,30.12
2018-10-15T13:35:54.919Z,30.56
2018-10-15T13:36:59.937Z,30.34
2018-10-15T13:38:07.364Z,30.31
2018-10-15T13:39:16.075Z,30.27
2018-10-15T13:40:23.527Z,30.55
2018-10-15T13:41:29.077Z,30.64
2018-10-15T13:42:34.602Z,30.48
2018-10-15T13:43:40.299Z,30.64
2018-10-15T13:44:47.270Z,30.84
2018-10-15T13:45:53.694Z,31.24
2018-10-15T13:46:59.529Z,30.66
2018-10-15T13:48:04.557Z,30.62
2018-10-15T13:49:11.250Z,30.72
2018-10-15T13:50:16.355Z,30.53
2018-10-15T13:51:22.308Z,30.91
2018-10-15T13:52:29.956Z,30.71
2018-10-15T13:53:36.285Z,30.88
2018-10-15T13:54:42.837Z,30.54
2018-10-15T13:55:47.954Z,30.65
2018-10-15T13:56:52.599Z,30.40
2018-10-15T13:57:57.367Z,30.37
2018-10-15T13:59:02.857Z,30.21
2018-10-15T14:00:14.053Z,30.37
2018-10-15T14:01:20.483Z,30.66
2018-10-15T14:02:26.340Z,30.66
2018-10-15T14:03:33.116Z,30.66
2018-10-15T14:04:39.425Z,30.95
2018-10-15T14:05:44.299Z,30.79
2018-10-15T14:06:49.732Z,30.90
2018-10-15T14:07:55.103Z,30.00
2018-10-15T14:09:14.401Z,29.99
2018-10-15T14:10:20.609Z,29.88
2018-10-15T14:11:25.180Z,30.34
2018-10-15T14:12:30.621Z,29.58
2018-10-15T14:13:35.998Z,29.72
2018-10-15T14:14:40.483Z,30.11
2018-10-15T14:15:45.885Z,29.76
2018-10-15T14:16:51.612Z,30.06
2018-10-15T14:17:57.267Z,30.23
2018-10-15T14:19:02.351Z,30.05
2018-10-15T14:20:07.572Z,28.95
2018-10-15T14:21:12.005Z,27.92
2018-10-15T14:22:17.612Z,27.48
2018-10-15T14:23:23.482Z,27.31
2018-10-15T14:24:28.101Z,27.34
2018-10-15T14:25:32.611Z,27.46
2018-10-15T14:26:38.290Z,27.10
2018-10-15T14:28:00.296Z,27.21
2018-10-15T14:29:05.570Z,27.63
2018-10-15T14:30:12.994Z,27.51
2018-10-15T14:31:17.608Z,27.64
2018-10-15T14:32:25.376Z,27.64
2018-10-15T14:33:40.120Z,28.19
2018-10-15T14:34:44.651Z,28.74
2018-10-15T14:35:49.426Z,28.97
2018-10-15T14:36:54.529Z,28.51
2018-10-15T14:37:58.997Z,28.12
2018-10-15T14:39:05.852Z,28.03
2018-10-15T14:40:12.497Z,27.89
2018-10-15T14:41:18.623Z,28.18
2018-10-15T14:42:24.132Z,28.64
2018-10-15T14:43:30.141Z,29.35
2018-10-15T14:44:35.863Z,29.67
2018-10-15T14:45:41.437Z,28.70
2018-10-15T14:46:46.117Z,27.80
2018-10-15T14:47:51.013Z,27.77
2018-10-15T14:48:57.420Z,28.17
2018-10-15T14:50:02.501Z,28.61
2018-10-15T14:51:21.350Z,28.79
2018-10-15T14:52:32.307Z,29.30
2018-10-15T14:53:40.745Z,30.03
2018-10-15T14:54:46.582Z,30.32
2018-10-15T14:55:52.821Z,29.72
2018-10-15T14:56:59.674Z,29.62
2018-10-15T14:58:05.856Z,29.57
2018-10-15T14:59:17.906Z,29.50
2018-10-15T15:00:25.030Z,30.04
2018-10-15T15:01:30.419Z,30.58
2018-10-15T15:02:37.443Z,31.01
2018-10-15T15:03:43.674Z,31.29
2018-10-15T15:04:48.077Z,31.04
2018-10-15T15:05:52.931Z,30.98
2018-10-15T15:06:57.417Z,31.27